Time;durP1;ratioP1;P1;durP2;ratioP2;P2;SDS_P1;SDS_P2;PMS_P1;PMS_P2;Temp;Humidity;BMP_temperature;BMP_pressure;BME280_temperature;BME280_humidity;BME280_pressure;Samples;Min_cycle;Max_cycle;Signal;HPM_P1;HPM_P2
2023/01/28 00:01:57;;;;;;;10.43;8.32;;;;;;;4.85;66.47;102656.16;3600896;39;20122;-63
2023/01/28 00:04:23;;;;;;;11.05;9.00;;;;;;;4.87;66.64;102659.66;3603805;39;20138;-63
2023/01/28 00:06:49;;;;;;;11.25;9.20;;;;;;;4.88;66.67;102658.78;3601638;39;20051;-62
2023/01/28 00:09:15;;;;;;;11.13;9.32;;;;;;;4.92;66.96;102664.97;3603957;39;20058;-63
2023/01/28 00:11:41;;;;;;;11.75;8.65;;;;;;;4.92;67.63;102666.75;3604717;39;20047;-63
2023/01/28 00:14:07;;;;;;;10.73;8.98;;;;;;;4.91;66.77;102664.97;3602765;39;20070;-63
2023/01/28 00:16:33;;;;;;;10.27;8.52;;;;;;;4.91;66.59;102660.53;3603228;39;20059;-63
2023/01/28 00:18:58;;;;;;;10.27;8.23;;;;;;;4.89;66.62;102671.22;3600041;39;20059;-63
2023/01/28 00:21:24;;;;;;;12.50;9.52;;;;;;;4.88;66.45;102669.47;3603676;39;20390;-63
2023/01/28 00:23:54;;;;;;;11.38;8.93;;;;;;;4.87;67.09;102661.47;3604970;39;20070;-63
2023/01/28 00:26:23;;;;;;;11.15;8.55;;;;;;;4.85;67.21;102666.81;3602346;39;20039;-63
2023/01/28 00:28:48;;;;;;;12.63;9.63;;;;;;;4.86;66.68;102673.91;3606228;39;20120;-63
2023/01/28 00:31:17;;;;;;;10.05;8.07;;;;;;;4.84;67.05;102672.13;3604270;39;20059;-63
2023/01/28 00:33:46;;;;;;;11.02;8.93;;;;;;;4.83;67.28;102671.25;3604675;39;20055;-63
2023/01/28 00:36:13;;;;;;;10.70;8.38;;;;;;;4.83;66.87;102673.03;3605297;39;20125;-63
2023/01/28 00:38:39;;;;;;;11.65;9.30;;;;;;;4.83;66.49;102678.38;3607695;39;20120;-63
2023/01/28 00:41:12;;;;;;;12.70;9.50;;;;;;;4.82;66.76;102684.56;3605724;39;20058;-63
2023/01/28 00:43:39;;;;;;;10.98;8.65;;;;;;;4.65;66.56;102661.63;3604629;39;20063;-63
2023/01/28 00:46:08;;;;;;;11.18;8.75;;;;;;;4.75;66.50;102683.75;3604015;39;20324;-63
2023/01/28 00:48:35;;;;;;;13.18;9.70;;;;;;;4.74;66.67;102683.78;3605240;39;20046;-62
2023/01/28 00:51:01;;;;;;;9.90;8.07;;;;;;;4.71;67.05;102676.69;3607676;39;20055;-63
2023/01/28 00:53:28;;;;;;;11.52;8.85;;;;;;;4.71;67.00;102682.00;3605404;39;20092;-63
2023/01/28 00:55:54;;;;;;;11.90;9.40;;;;;;;4.69;66.79;102689.13;3604183;39;20124;-62
2023/01/28 00:58:21;;;;;;;11.02;8.93;;;;;;;4.68;67.01;102681.16;3605594;39;20087;-63
2023/01/28 01:00:47;;;;;;;11.70;8.85;;;;;;;4.67;67.06;102682.94;3604438;39;20340;-63
2023/01/28 01:03:12;;;;;;;12.23;9.35;;;;;;;4.64;66.88;102690.94;3603349;39;20063;-63
2023/01/28 01:05:38;;;;;;;12.00;9.70;;;;;;;4.63;66.60;102691.81;3596941;39;20090;-63
2023/01/28 01:08:04;;;;;;;12.13;9.00;;;;;;;4.62;67.07;102692.72;3606081;39;20063;-63
2023/01/28 01:10:30;;;;;;;11.95;8.82;;;;;;;4.59;66.99;102698.06;3604322;39;20055;-63
2023/01/28 01:12:57;;;;;;;11.48;8.57;;;;;;;4.58;66.57;102685.66;3605760;39;20098;-63
2023/01/28 01:15:23;;;;;;;11.30;9.18;;;;;;;4.58;65.42;102686.53;3604604;39;20087;-63
2023/01/28 01:17:49;;;;;;;10.50;8.43;;;;;;;4.58;65.01;102686.53;3605480;39;20047;-63
2023/01/28 01:20:24;;;;;;;12.40;8.85;;;;;;;4.61;65.49;102682.97;3607065;39;20063;-63
2023/01/28 01:22:50;;;;;;;12.23;9.40;;;;;;;4.59;65.64;102690.09;3600887;39;20062;-63
2023/01/28 01:25:17;;;;;;;11.50;8.73;;;;;;;4.59;65.63;102687.44;3604731;39;20059;-63
2023/01/28 01:27:46;;;;;;;11.52;8.25;;;;;;;4.61;66.36;102690.97;3604005;39;20066;-63
2023/01/28 01:30:13;;;;;;;11.88;9.43;;;;;;;4.59;66.20;102684.75;3603582;39;20051;-63
2023/01/28 01:32:39;;;;;;;11.20;9.13;;;;;;;4.58;66.40;102680.34;3604917;39;20057;-62
2023/01/28 01:35:07;;;;;;;11.93;9.18;;;;;;;4.60;66.59;102678.56;3604479;39;20127;-63
2023/01/28 01:37:35;;;;;;;12.05;8.40;;;;;;;4.61;65.67;102678.53;3604826;39;20048;-63
2023/01/28 01:40:03;;;;;;;12.05;9.05;;;;;;;4.58;65.76;102675.88;3606680;39;20159;-63
2023/01/28 01:42:31;;;;;;;11.18;8.27;;;;;;;4.56;65.61;102679.44;3602022;39;20043;-62
2023/01/28 01:45:06;;;;;;;11.68;8.68;;;;;;;4.56;66.13;102676.78;3603968;39;20123;-63
2023/01/28 01:48:02;;;;;;;13.13;9.20;;;;;;;4.58;66.29;102683.00;3603106;39;20062;-62
2023/01/28 01:51:10;;;;;;;11.90;8.98;;;;;;;4.58;65.97;102688.34;3602517;39;20066;-63
2023/01/28 01:53:42;;;;;;;11.00;8.93;;;;;;;4.58;66.17;102683.00;3603526;39;20055;-63
2023/01/28 01:56:16;;;;;;;12.75;9.23;;;;;;;4.58;65.55;102688.34;3602276;39;20413;-62
2023/01/28 01:58:49;;;;;;;12.00;9.25;;;;;;;4.57;65.33;102687.44;3605098;39;20374;-63
2023/01/28 02:01:19;;;;;;;11.32;9.05;;;;;;;4.56;65.48;102690.09;3604787;39;20369;-66
2023/01/28 02:04:01;;;;;;;12.98;9.82;;;;;;;4.55;65.13;102685.69;3601988;39;20058;-63
2023/01/28 02:06:29;;;;;;;12.25;8.90;;;;;;;4.56;65.05;102690.09;3604078;39;20489;-63
2023/01/28 02:08:56;;;;;;;13.35;9.73;;;;;;;4.53;65.58;102688.34;3603958;39;20050;-62
2023/01/28 02:11:30;;;;;;;11.57;8.52;;;;;;;4.53;65.19;102690.13;3603943;39;20476;-62
2023/01/28 02:14:03;;;;;;;12.23;9.63;;;;;;;4.51;65.65;102689.28;3604135;39;20083;-63
2023/01/28 02:16:31;;;;;;;12.80;9.13;;;;;;;4.49;65.33;102694.59;3603618;39;20051;-63
2023/01/28 02:18:57;;;;;;;12.25;9.57;;;;;;;4.41;65.10;102684.00;3602386;39;20055;-62
2023/01/28 02:21:54;;;;;;;12.25;9.38;;;;;;;4.47;65.50;102698.16;3602519;39;20066;-63
2023/01/28 02:25:10;;;;;;;13.07;9.55;;;;;;;4.45;65.57;102689.31;3605357;39;20051;-63
2023/01/28 02:28:13;;;;;;;12.57;9.02;;;;;;;4.41;64.96;102685.78;3599721;39;20099;-63
2023/01/28 02:31:11;;;;;;;12.60;9.48;;;;;;;4.42;65.01;102692.88;3604738;39;20047;-63
2023/01/28 02:33:53;;;;;;;11.98;9.57;;;;;;;4.40;64.82;102684.88;3601973;39;20091;-63
2023/01/28 02:37:03;;;;;;;13.43;9.23;;;;;;;4.40;63.72;102692.88;3602830;39;20294;-62
2023/01/28 02:39:39;;;;;;;11.93;9.30;;;;;;;4.40;64.00;102687.53;3590571;39;20063;-63
2023/01/28 02:42:20;;;;;;;12.38;9.30;;;;;;;4.26;64.45;102661.91;3602635;39;20066;-63
2023/01/28 02:44:45;;;;;;;11.68;9.07;;;;;;;4.40;64.93;102692.88;3605059;39;20057;-63
2023/01/28 02:50:08;;;;;;;12.82;9.60;;;;;;;4.14;65.30;102638.91;3601545;39;20396;-63
2023/01/28 02:56:11;;;;;;;12.93;9.27;;;;;;;4.36;65.30;102691.13;3602937;39;20599;-62
2023/01/28 02:59:35;;;;;;;11.88;8.68;;;;;;;4.37;65.51;102698.22;3608503;39;20119;-63
2023/01/28 03:02:39;;;;;;;12.20;9.10;;;;;;;4.33;65.25;102701.78;3602261;39;20115;-63
2023/01/28 03:05:34;;;;;;;12.93;9.15;;;;;;;4.33;65.85;102691.13;3591726;39;20187;-63
2023/01/28 03:09:21;;;;;;;11.60;8.65;;;;;;;4.33;65.44;102706.22;3601849;39;20047;-63
2023/01/28 03:36:52;;;;;;;10.15;8.13;;;;;;;4.22;64.85;102708.97;3605241;39;20131;-63
2023/01/28 03:39:23;;;;;;;11.35;7.93;;;;;;;4.21;64.78;102707.19;3603690;39;20117;-63
2023/01/28 03:42:09;;;;;;;9.73;7.68;;;;;;;4.21;63.45;102704.50;3603390;39;20059;-63
2023/01/28 03:44:54;;;;;;;10.77;8.35;;;;;;;4.22;63.55;102716.94;3596979;39;20058;-63
2023/01/28 03:47:26;;;;;;;8.88;7.30;;;;;;;4.22;63.25;102711.63;3603719;39;20123;-63
2023/01/28 03:49:55;;;;;;;8.68;7.28;;;;;;;4.23;63.33;102708.06;3605023;39;20101;-62
2023/01/28 03:52:26;;;;;;;10.80;7.32;;;;;;;3.93;62.32;102654.13;3597687;39;20054;-63
2023/01/28 03:54:51;;;;;;;8.65;7.22;;;;;;;4.25;62.46;102703.63;3601546;39;20055;-63
2023/01/28 03:57:22;;;;;;;9.27;7.38;;;;;;;4.28;63.05;102714.25;3604648;39;20372;-63
2023/01/28 03:59:51;;;;;;;9.05;7.38;;;;;;;4.30;62.94;102709.78;3602275;39;20368;-63
2023/01/28 04:02:19;;;;;;;9.60;7.50;;;;;;;4.19;62.88;102693.00;3605272;39;20062;-63
2023/01/28 04:04:45;;;;;;;9.23;7.43;;;;;;;4.31;63.19;102722.19;3604298;39;20062;-63
2023/01/28 04:07:15;;;;;;;9.13;7.30;;;;;;;4.27;63.18;102717.78;3604672;39;20717;-63
2023/01/28 04:09:42;;;;;;;8.98;7.38;;;;;;;4.23;63.04;102716.06;3604150;39;20502;-63
2023/01/28 04:12:09;;;;;;;9.25;7.65;;;;;;;4.25;63.87;102729.34;3603411;39;20051;-63
2023/01/28 04:14:35;;;;;;;9.80;7.80;;;;;;;4.23;63.88;102731.13;3606157;39;20050;-63
2023/01/28 04:17:01;;;;;;;10.88;8.15;;;;;;;4.22;64.14;102732.91;3604635;39;20100;-63
2023/01/28 04:19:27;;;;;;;9.20;7.88;;;;;;;4.21;64.56;102723.16;3603555;39;20055;-63
2023/01/28 04:21:53;;;;;;;10.15;8.13;;;;;;;4.19;65.27;102730.28;3604586;39;20051;-63
2023/01/28 04:24:21;;;;;;;10.27;8.00;;;;;;;3.97;65.42;102688.69;3603628;39;20074;-62
2023/01/28 04:26:47;;;;;;;11.15;8.68;;;;;;;4.17;66.03;102727.59;3606937;39;20067;-63
2023/01/28 04:29:13;;;;;;;10.68;8.65;;;;;;;3.97;65.84;102696.66;3606153;39;20073;-62
2023/01/28 04:31:38;;;;;;;12.63;9.52;;;;;;;4.14;66.77;102729.41;3606518;39;20398;-63
2023/01/28 04:34:04;;;;;;;12.02;9.85;;;;;;;4.12;67.24;102729.44;3602829;39;20051;-63
2023/01/28 04:36:30;;;;;;;11.35;9.02;;;;;;;4.12;67.13;102725.84;3605401;39;20091;-63
2023/01/28 04:38:55;;;;;;;12.48;9.00;;;;;;;4.09;67.36;102729.44;3605464;39;20058;-63
2023/01/28 04:41:21;;;;;;;12.48;9.65;;;;;;;4.02;67.56;102708.16;3606194;39;20461;-63
2023/01/28 04:43:48;;;;;;;12.50;8.88;;;;;;;4.10;67.63;102727.66;3608154;39;20453;-63
2023/01/28 04:46:15;;;;;;;13.02;9.85;;;;;;;4.08;67.50;102721.44;3605474;39;20291;-63
2023/01/28 04:48:40;;;;;;;12.35;9.40;;;;;;;4.06;67.68;102726.78;3602092;39;20047;-63
2023/01/28 04:51:06;;;;;;;10.68;8.93;;;;;;;4.04;67.30;102725.00;3603294;39;20047;-62
2023/01/28 04:53:32;;;;;;;10.88;9.00;;;;;;;4.01;67.17;102725.03;3602433;39;20058;-63
2023/01/28 04:55:58;;;;;;;11.82;9.35;;;;;;;3.99;68.05;102722.34;3604049;39;20086;-63
2023/01/28 04:58:25;;;;;;;12.30;9.50;;;;;;;3.98;68.17;102725.91;3603414;39;20061;-63
2023/01/28 05:00:59;;;;;;;13.30;9.93;;;;;;;3.98;67.80;102730.34;3602198;39;20095;-63
2023/01/28 05:03:26;;;;;;;12.50;9.70;;;;;;;3.97;68.06;102726.81;3602341;39;20062;-63
2023/01/28 05:05:52;;;;;;;12.52;9.52;;;;;;;3.81;67.36;102698.50;3604336;39;20054;-64
2023/01/28 05:08:17;;;;;;;13.75;9.90;;;;;;;3.98;68.45;102725.03;3603723;39;20051;-63
2023/01/28 05:10:43;;;;;;;12.70;9.57;;;;;;;3.97;68.17;102728.59;3603209;39;20345;-63
2023/01/28 05:13:11;;;;;;;15.02;10.80;;;;;;;3.97;67.99;102732.13;3602767;39;20070;-62
2023/01/28 05:15:37;;;;;;;13.55;10.20;;;;;;;3.62;68.07;102665.78;3602004;39;20063;-63
2023/01/28 05:18:03;;;;;;;14.55;9.82;;;;;;;3.69;67.80;102679.03;3605089;39;20113;-63
2023/01/28 05:20:28;;;;;;;12.60;9.55;;;;;;;3.98;67.58;102736.56;3602735;39;20426;-63
2023/01/28 05:22:54;;;;;;;13.52;10.05;;;;;;;3.97;67.76;102744.56;3603703;39;20136;-62
2023/01/28 05:25:20;;;;;;;13.07;9.63;;;;;;;3.98;67.60;102741.00;3604171;39;20057;-63
2023/01/28 05:27:51;;;;;;;12.23;9.27;;;;;;;3.95;67.26;102731.25;3605391;39;20051;-63
2023/01/28 05:30:20;;;;;;;12.80;9.23;;;;;;;3.95;66.55;102725.94;3602166;39;20291;-63
2023/01/28 05:32:46;;;;;;;14.23;10.13;;;;;;;3.93;67.06;102723.28;3601738;39;20287;-64
2023/01/28 05:35:12;;;;;;;12.70;9.60;;;;;;;3.91;66.68;102725.06;3603012;39;20062;-62
2023/01/28 05:37:37;;;;;;;12.90;9.43;;;;;;;3.92;67.69;102720.63;3602372;39;20059;-62
2023/01/28 05:40:04;;;;;;;13.85;9.73;;;;;;;3.91;67.09;102725.06;3602574;39;20070;-62
2023/01/28 05:42:29;;;;;;;12.65;9.70;;;;;;;3.91;66.66;102722.41;3604378;39;20370;-62
2023/01/28 05:44:55;;;;;;;13.52;9.45;;;;;;;3.91;66.57;102714.41;3606949;39;20069;-62
2023/01/28 05:47:20;;;;;;;10.95;8.88;;;;;;;3.62;66.75;102669.31;3609749;39;20282;-62
2023/01/28 05:49:46;;;;;;;12.15;9.30;;;;;;;3.92;67.57;102717.97;3603672;39;20081;-62
2023/01/28 05:52:12;;;;;;;12.48;9.77;;;;;;;3.90;67.02;102717.97;3604322;39;20058;-62
2023/01/28 05:54:37;;;;;;;13.48;9.90;;;;;;;3.91;66.86;102717.06;3603756;39;20051;-63
2023/01/28 05:57:04;;;;;;;13.60;9.70;;;;;;;3.80;67.55;102710.91;3606153;39;20187;-62
2023/01/28 05:59:30;;;;;;;12.00;8.68;;;;;;;3.90;67.11;102728.63;3605790;39;20455;-62
2023/01/28 06:01:55;;;;;;;10.15;7.75;;;;;;;3.87;65.16;102728.63;3602334;39;20461;-62
2023/01/28 06:04:21;;;;;;;10.68;8.30;;;;;;;3.85;64.14;102735.72;3606060;39;20169;-62
2023/01/28 06:06:46;;;;;;;11.10;8.68;;;;;;;3.84;64.27;102739.28;3600998;39;20047;-62
2023/01/28 06:09:12;;;;;;;10.93;8.55;;;;;;;3.85;65.29;102740.16;3602462;39;20059;-62
2023/01/28 06:11:38;;;;;;;11.52;8.32;;;;;;;3.82;64.37;102735.72;3607300;39;20449;-63
2023/01/28 06:14:03;;;;;;;10.93;8.55;;;;;;;3.82;65.44;102738.38;3601804;39;20059;-63
2023/01/28 06:16:29;;;;;;;10.07;7.78;;;;;;;3.81;64.27;102744.59;3602432;39;20066;-62
2023/01/28 06:18:54;;;;;;;10.48;7.88;;;;;;;3.79;64.16;102746.38;3601101;39;20093;-62
2023/01/28 06:21:20;;;;;;;10.13;7.63;;;;;;;3.76;63.54;102746.38;3601756;39;20066;-62
2023/01/28 06:23:46;;;;;;;8.80;7.30;;;;;;;3.71;63.55;102738.44;3605962;39;20093;-62
2023/01/28 06:26:11;;;;;;;10.57;7.63;;;;;;;3.74;61.58;102742.81;3603411;39;20043;-62
2023/01/28 06:28:37;;;;;;;9.10;7.40;;;;;;;3.73;61.54;102749.06;3601514;39;20055;-62
2023/01/28 06:31:02;;;;;;;12.63;7.45;;;;;;;3.72;61.72;102763.25;3602205;39;20063;-63
2023/01/28 06:33:28;;;;;;;10.52;7.57;;;;;;;3.73;62.24;102749.06;3603596;39;20057;-63
2023/01/28 06:35:54;;;;;;;10.48;7.07;;;;;;;3.72;61.76;102749.94;3603280;39;20873;-62
2023/01/28 06:38:20;;;;;;;9.57;7.13;;;;;;;3.69;61.20;102750.84;3604028;39;20063;-62
2023/01/28 06:40:51;;;;;;;8.68;6.95;;;;;;;3.71;60.31;102756.13;3604916;39;20057;-63
2023/01/28 06:43:17;;;;;;;9.95;7.90;;;;;;;3.40;60.42;102705.69;3607571;39;20058;-62
2023/01/28 06:45:42;;;;;;;10.65;7.70;;;;;;;3.71;60.03;102753.47;3605072;39;20317;-62
2023/01/28 06:48:08;;;;;;;9.57;7.40;;;;;;;3.69;60.39;102764.13;3602866;39;20058;-62
2023/01/28 06:50:33;;;;;;;9.60;7.75;;;;;;;3.69;60.41;102760.59;3603781;39;20093;-62
2023/01/28 06:52:59;;;;;;;11.00;8.15;;;;;;;3.70;59.98;102759.69;3601694;39;20067;-61
2023/01/28 06:55:25;;;;;;;10.60;7.80;;;;;;;3.65;59.56;102764.16;3601867;39;20065;-62
2023/01/28 06:57:50;;;;;;;11.57;8.75;;;;;;;3.64;60.63;102757.94;3603695;39;20057;-62
2023/01/28 07:00:17;;;;;;;10.90;8.45;;;;;;;3.63;59.95;102764.16;3604160;39;20047;-62
2023/01/28 07:02:43;;;;;;;11.98;8.52;;;;;;;3.65;60.59;102758.84;3604354;39;21933;-62
2023/01/28 07:05:09;;;;;;;11.85;8.43;;;;;;;3.68;59.96;102761.50;3603931;39;20090;-62
2023/01/28 07:07:35;;;;;;;11.75;8.82;;;;;;;3.56;59.85;102749.09;3603205;39;20347;-62
2023/01/28 07:10:02;;;;;;;11.40;8.63;;;;;;;3.66;60.03;102768.56;3601682;39;20087;-62
2023/01/28 07:12:28;;;;;;;11.43;8.70;;;;;;;3.66;60.08;102772.13;3600242;39;20139;-65
2023/01/28 07:14:53;;;;;;;10.65;8.35;;;;;;;3.65;59.75;102766.81;3600663;39;20390;-62
2023/01/28 07:17:19;;;;;;;11.00;8.23;;;;;;;3.67;59.17;102779.19;3604359;39;20051;-62
2023/01/28 07:19:44;;;;;;;11.15;7.93;;;;;;;3.66;59.17;102779.22;3606428;39;20067;-62
2023/01/28 07:22:10;;;;;;;10.77;8.27;;;;;;;3.65;59.43;102782.78;3605627;39;20058;-63
2023/01/28 07:24:36;;;;;;;12.32;9.23;;;;;;;3.65;59.51;102777.44;3602340;39;20428;-62
2023/01/28 07:27:02;;;;;;;12.07;9.27;;;;;;;3.62;59.05;102791.63;3603051;39;20425;-62
2023/01/28 07:29:28;;;;;;;13.85;9.65;;;;;;;3.62;59.61;102786.31;3602406;39;20078;-62
2023/01/28 07:31:53;;;;;;;12.35;8.35;;;;;;;3.65;60.57;102782.78;3603406;39;20389;-62
2023/01/28 07:34:19;;;;;;;12.70;8.63;;;;;;;3.66;60.32;102792.50;3604087;39;20327;-62
2023/01/28 07:36:44;;;;;;;12.25;8.63;;;;;;;3.69;60.10;102803.16;3602933;39;20147;-62
2023/01/28 07:39:10;;;;;;;12.93;8.80;;;;;;;3.63;60.60;102779.22;3603658;39;20408;-63
2023/01/28 07:41:36;;;;;;;12.63;9.02;;;;;;;3.72;60.04;102797.81;3602217;39;20047;-63
2023/01/28 07:44:01;;;;;;;12.73;8.82;;;;;;;3.70;60.20;102804.91;3602738;39;20063;-63
2023/01/28 07:46:27;;;;;;;12.77;8.90;;;;;;;3.63;60.21;102782.75;3606807;39;20051;-64
2023/01/28 07:48:53;;;;;;;12.07;8.75;;;;;;;3.64;60.13;102797.81;3608644;39;20046;-64
2023/01/28 07:51:19;;;;;;;11.80;8.43;;;;;;;3.67;60.10;102802.25;3611993;39;20051;-64
2023/01/28 07:53:44;;;;;;;10.50;8.40;;;;;;;3.52;59.46;102778.34;3606622;39;20413;-64
2023/01/28 07:56:10;;;;;;;10.23;8.15;;;;;;;3.65;59.99;102812.03;3605427;39;20419;-64
2023/01/28 07:58:35;;;;;;;14.30;9.35;;;;;;;3.62;59.47;102817.34;3608710;39;20055;-63
2023/01/28 08:01:01;;;;;;;13.20;9.68;;;;;;;3.63;59.45;102820.00;3606540;39;20372;-63
2023/01/28 08:03:27;;;;;;;15.07;10.05;;;;;;;3.64;59.56;102832.38;3604572;39;20040;-63
2023/01/28 08:05:55;;;;;;;13.27;10.02;;;;;;;3.64;60.13;102818.22;3606137;39;20194;-63
2023/01/28 08:08:23;;;;;;;13.32;9.48;;;;;;;3.60;59.03;102816.44;3604566;39;20054;-63
2023/01/28 08:10:49;;;;;;;12.48;8.98;;;;;;;3.58;59.15;102816.44;3603976;39;20064;-63
2023/01/28 08:13:17;;;;;;;13.18;9.32;;;;;;;3.60;59.58;102812.00;3604122;39;20298;-64
2023/01/28 08:15:44;;;;;;;12.50;9.48;;;;;;;3.57;59.14;102819.09;3598151;39;20402;-63
2023/01/28 08:18:13;;;;;;;13.15;9.88;;;;;;;3.33;59.74;102778.38;3600736;39;20050;-63
2023/01/28 08:20:40;;;;;;;12.07;9.00;;;;;;;2.85;59.95;102705.72;3605512;39;20039;-63
2023/01/28 08:23:13;;;;;;;12.32;9.05;;;;;;;3.57;59.38;102843.03;3602380;39;20402;-63
2023/01/28 08:25:39;;;;;;;11.88;8.57;;;;;;;3.56;59.99;102844.81;3602869;39;20059;-64
2023/01/28 08:28:06;;;;;;;11.40;9.00;;;;;;;3.54;58.73;102857.22;3607286;39;20054;-63
2023/01/28 08:30:33;;;;;;;12.95;8.57;;;;;;;3.57;58.66;102843.91;3603110;39;20047;-64
2023/01/28 08:33:00;;;;;;;12.07;8.63;;;;;;;3.44;58.79;102818.22;3605372;39;20063;-63
2023/01/28 08:35:28;;;;;;;11.75;9.02;;;;;;;3.63;59.13;102848.34;3604193;39;20058;-63
2023/01/28 08:37:54;;;;;;;12.85;9.30;;;;;;;3.67;58.72;102847.47;3601657;39;20128;-64
2023/01/28 08:40:20;;;;;;;13.73;9.40;;;;;;;3.71;58.11;102854.53;3604782;39;20087;-63
2023/01/28 08:42:51;;;;;;;13.25;9.35;;;;;;;3.73;58.54;102850.13;3603116;39;20271;-63
2023/01/28 08:45:18;;;;;;;11.52;8.93;;;;;;;3.66;58.36;102835.06;3596835;39;20051;-63
2023/01/28 08:47:58;;;;;;;12.68;9.00;;;;;;;3.78;58.44;102864.31;3603427;39;20057;-63
2023/01/28 08:50:28;;;;;;;11.88;8.82;;;;;;;3.65;59.18;102828.88;3604812;39;20317;-63
2023/01/28 08:52:57;;;;;;;13.95;8.95;;;;;;;3.88;59.23;102865.19;3603500;39;20363;-64
2023/01/28 08:55:25;;;;;;;12.02;9.55;;;;;;;3.91;58.76;102865.19;3603101;39;20046;-63
2023/01/28 08:57:51;;;;;;;11.23;8.48;;;;;;;3.90;58.43;102861.66;3594494;39;20047;-63
2023/01/28 09:00:17;;;;;;;13.00;9.32;;;;;;;3.90;58.34;102866.97;3603556;39;20154;-63
2023/01/28 09:02:43;;;;;;;12.23;8.85;;;;;;;3.91;57.90;102873.16;3605223;39;20043;-63
2023/01/28 09:05:09;;;;;;;11.93;8.90;;;;;;;3.83;58.87;102859.84;3606287;39;20423;-63
2023/01/28 09:07:37;;;;;;;12.93;9.48;;;;;;;3.92;58.48;102875.81;3604462;39;20073;-63
2023/01/28 09:10:04;;;;;;;12.15;9.02;;;;;;;3.89;58.57;102857.19;3603908;39;20420;-63
2023/01/28 09:12:31;;;;;;;12.30;9.10;;;;;;;3.97;58.89;102872.28;3603749;39;20337;-64
2023/01/28 09:14:57;;;;;;;12.35;9.13;;;;;;;4.01;58.65;102868.72;3604468;39;20523;-63
2023/01/28 09:17:23;;;;;;;12.90;9.15;;;;;;;4.02;59.20;102876.69;3604120;39;20047;-64
2023/01/28 09:19:50;;;;;;;13.27;9.68;;;;;;;4.02;58.64;102889.09;3604612;39;20389;-63
2023/01/28 09:22:16;;;;;;;14.70;9.35;;;;;;;4.00;58.85;102881.13;3603555;39;20368;-63
2023/01/28 09:24:42;;;;;;;13.18;9.50;;;;;;;4.01;58.38;102895.31;3603178;39;20055;-63
2023/01/28 09:27:07;;;;;;;11.98;9.02;;;;;;;4.02;59.65;102891.75;3604283;39;20061;-64
2023/01/28 09:29:34;;;;;;;11.63;9.30;;;;;;;3.87;58.90;102855.41;3602826;39;20051;-63
2023/01/28 09:32:00;;;;;;;13.80;10.05;;;;;;;3.98;59.10;102869.59;3601891;39;20439;-63
2023/01/28 09:34:26;;;;;;;13.43;9.88;;;;;;;3.98;58.69;102882.91;3606794;39;20231;-64
2023/01/28 09:36:52;;;;;;;14.52;10.07;;;;;;;3.91;59.16;102882.03;3602477;39;20474;-63
2023/01/28 09:39:17;;;;;;;13.30;10.30;;;;;;;3.98;59.52;102900.66;3601364;39;20086;-63
2023/01/28 09:42:14;;;;;;;13.23;9.90;;;;;;;3.99;60.19;102899.75;3604736;39;20059;-63
2023/01/28 09:45:25;;;;;;;14.60;10.50;;;;;;;4.01;59.36;102905.97;3602896;39;20055;-63
2023/01/28 09:48:00;;;;;;;12.98;10.00;;;;;;;3.98;59.67;102908.63;3599969;39;20112;-64
2023/01/28 09:50:38;;;;;;;12.95;9.65;;;;;;;4.02;59.99;102902.41;3603838;39;20297;-63
2023/01/28 09:53:19;;;;;;;12.85;9.88;;;;;;;4.06;59.94;102902.41;3605448;39;20113;-64
2023/01/28 09:56:01;;;;;;;13.43;10.07;;;;;;;4.12;60.67;102893.50;3602363;39;20139;-64
2023/01/28 09:58:27;;;;;;;13.77;10.13;;;;;;;4.12;59.52;102904.16;3604565;39;20050;-62
2023/01/28 10:01:41;;;;;;;11.68;9.95;;;;;;;4.11;59.04;102905.94;3603075;39;20099;-62
2023/01/28 10:04:34;;;;;;;13.60;9.90;;;;;;;4.10;59.05;102900.63;3604366;39;20056;-63
2023/01/28 10:07:26;;;;;;;12.73;9.40;;;;;;;4.10;59.00;102917.50;3603724;39;20118;-63
2023/01/28 10:10:37;;;;;;;13.38;9.80;;;;;;;4.08;58.64;102926.34;3593989;39;20058;-63
2023/01/28 10:13:24;;;;;;;11.43;9.10;;;;;;;4.02;57.91;102924.56;3575752;40;20096;-63
2023/01/28 10:16:05;;;;;;;12.15;9.65;;;;;;;4.02;58.79;102913.06;3599503;39;21072;-63
2023/01/28 10:19:11;;;;;;;12.48;10.00;;;;;;;4.01;58.93;102921.94;3602396;39;20062;-62
2023/01/28 10:22:01;;;;;;;10.60;8.77;;;;;;;3.98;59.01;102928.13;3600852;39;20051;-62
2023/01/28 10:24:35;;;;;;;12.35;9.35;;;;;;;3.76;59.12;102905.97;3601766;39;20059;-63
2023/01/28 10:27:15;;;;;;;11.73;9.75;;;;;;;3.97;59.10;102934.34;3602383;39;20378;-63
2023/01/28 10:29:44;;;;;;;12.05;9.48;;;;;;;4.03;58.58;102946.75;3603235;39;20059;-64
2023/01/28 10:32:33;;;;;;;12.35;9.70;;;;;;;4.06;57.99;102933.44;3596971;39;20115;-64
2023/01/28 10:35:00;;;;;;;11.77;9.18;;;;;;;4.10;58.78;102921.94;3602378;39;20074;-64
2023/01/28 10:37:33;;;;;;;11.25;9.52;;;;;;;4.12;58.26;102920.13;3599969;39;20132;-64
2023/01/28 10:40:01;;;;;;;10.82;8.32;;;;;;;4.12;58.22;102922.78;3604637;39;20061;-63
2023/01/28 10:42:37;;;;;;;10.73;9.00;;;;;;;4.11;58.43;102926.34;3601967;39;20139;-64
2023/01/28 10:45:13;;;;;;;11.20;9.07;;;;;;;4.14;58.01;102923.69;3605488;39;20050;-63
2023/01/28 10:48:22;;;;;;;11.65;9.32;;;;;;;4.17;57.74;102923.69;3609790;39;20071;-64
2023/01/28 10:51:03;;;;;;;10.68;9.10;;;;;;;4.14;57.82;102921.91;3604140;39;20070;-64
2023/01/28 10:53:41;;;;;;;9.80;8.07;;;;;;;4.10;56.93;102921.94;3601257;39;20120;-64
2023/01/28 10:56:27;;;;;;;11.13;8.85;;;;;;;4.05;57.40;102913.94;3602932;39;20055;-63
2023/01/28 10:59:25;;;;;;;10.65;8.10;;;;;;;4.04;57.96;102917.50;3601716;39;20136;-64
2023/01/28 11:01:56;;;;;;;11.32;8.63;;;;;;;4.01;58.44;102916.63;3602008;39;20717;-63
2023/01/28 11:04:30;;;;;;;10.27;8.18;;;;;;;3.97;58.62;102909.53;3603000;39;20062;-64
2023/01/28 11:07:02;;;;;;;;;;;;;;;3.88;58.68;102919.28;3604936;39;20390;-64
2023/01/28 11:09:36;;;;;;;10.38;8.48;;;;;;;3.63;58.49;102882.94;3605430;39;19973;-64
2023/01/28 11:12:33;;;;;;;10.50;7.65;;;;;;;3.72;58.68;102897.13;3603089;39;20338;-64
2023/01/28 11:15:04;;;;;;;11.57;8.27;;;;;;;3.86;59.17;102918.38;3601560;39;20123;-64
2023/01/28 11:17:36;;;;;;;14.05;9.27;;;;;;;3.89;59.11;102910.41;3601709;39;20055;-64
2023/01/28 11:20:19;;;;;;;12.45;8.68;;;;;;;3.93;59.42;102914.84;3602801;39;20062;-64
2023/01/28 11:22:47;;;;;;;12.52;8.05;;;;;;;3.95;59.34;102902.41;3605110;39;20108;-64
2023/01/28 11:25:32;;;;;;;10.65;7.93;;;;;;;3.98;59.09;102896.22;3606449;39;20698;-63
2023/01/28 11:28:01;;;;;;;11.45;8.43;;;;;;;4.01;59.58;102903.31;3607504;39;20055;-64
2023/01/28 11:30:35;;;;;;;12.75;8.68;;;;;;;4.04;58.86;102896.22;3589888;39;20048;-63
2023/01/28 11:33:17;;;;;;;11.30;8.35;;;;;;;4.10;59.63;102882.88;3603940;39;20043;-63
2023/01/28 11:35:57;;;;;;;13.05;9.15;;;;;;;4.06;59.09;102870.50;3603561;39;20083;-63
2023/01/28 11:38:25;;;;;;;14.15;9.48;;;;;;;4.15;58.96;102869.56;3602910;39;20055;-63
2023/01/28 11:40:57;;;;;;;12.73;8.75;;;;;;;4.19;58.44;102876.66;3602630;39;20051;-64
2023/01/28 11:43:30;;;;;;;14.25;9.32;;;;;;;4.20;58.71;102873.09;3598047;39;20114;-64
2023/01/28 11:46:17;;;;;;;13.43;9.30;;;;;;;4.22;59.00;102868.69;3602277;39;20063;-64
2023/01/28 11:49:24;;;;;;;10.80;8.38;;;;;;;4.29;58.25;102869.53;3605245;39;20290;-64
2023/01/28 11:52:33;;;;;;;11.00;8.50;;;;;;;4.28;58.14;102858.00;3600761;39;20132;-64
2023/01/28 11:55:35;;;;;;;11.30;7.97;;;;;;;4.30;58.08;102842.91;3601896;39;20059;-63
2023/01/28 11:58:33;;;;;;;11.43;8.77;;;;;;;4.30;58.50;102839.34;3601559;39;20083;-64
2023/01/28 12:01:29;;;;;;;14.45;9.77;;;;;;;4.36;58.51;102829.56;3603447;39;20070;-64
2023/01/28 12:04:19;;;;;;;12.45;9.23;;;;;;;4.39;58.83;102812.72;3601674;39;20055;-64
2023/01/28 12:07:09;;;;;;;13.45;9.15;;;;;;;4.51;58.93;102794.00;3604718;39;20069;-64
2023/01/28 12:09:51;;;;;;;12.43;9.00;;;;;;;4.64;58.66;102779.72;3604172;39;20047;-64
2023/01/28 12:12:44;;;;;;;12.88;9.50;;;;;;;4.74;56.85;102775.22;3602987;39;20061;-64
2023/01/28 12:15:41;;;;;;;12.25;9.52;;;;;;;4.81;56.27;102782.28;3604979;39;20084;-64
2023/01/28 12:18:33;;;;;;;10.55;8.43;;;;;;;5.57;55.46;102780.78;3594327;39;20054;-64
2023/01/28 12:21:34;;;;;;;10.35;8.63;;;;;;;6.14;53.45;102779.34;3603577;39;20069;-64
2023/01/28 12:24:38;;;;;;;11.43;8.55;;;;;;;6.17;52.22;102769.50;3604358;39;20301;-64